sensor_id;sensor_type;location;lat;lon;timestamp;pressure;altitude;pressure_sealevel;temperature;humidity
35758;BME280;21879;50.110;18.900;2023-02-28T00:04:30;99844.30;;;2.16;49.61
35758;BME280;21879;50.110;18.900;2023-02-28T00:14:55;99846.89;;;2.16;49.30
35758;BME280;21879;50.110;18.900;2023-02-28T00:25:22;99859.87;;;2.02;49.51
35758;BME280;21879;50.110;18.900;2023-02-28T00:35:46;99861.67;;;2.08;50.25
35758;BME280;21879;50.110;18.900;2023-02-28T00:46:12;99864.18;;;2.19;50.24
35758;BME280;21879;50.110;18.900;2023-02-28T00:56:37;99869.92;;;2.17;50.30
35758;BME280;21879;50.110;18.900;2023-02-28T01:07:01;99864.59;;;2.17;50.28
35758;BME280;21879;50.110;18.900;2023-02-28T01:17:25;99858.49;;;2.14;50.47
35758;BME280;21879;50.110;18.900;2023-02-28T01:27:50;99852.48;;;2.18;50.18
35758;BME280;21879;50.110;18.900;2023-02-28T01:38:16;99845.48;;;1.95;49.68
35758;BME280;21879;50.110;18.900;2023-02-28T01:48:51;99842.40;;;1.52;50.54
35758;BME280;21879;50.110;18.900;2023-02-28T01:59:22;99838.14;;;1.64;51.03
35758;BME280;21879;50.110;18.900;2023-02-28T02:09:49;99844.29;;;1.83;51.16
35758;BME280;21879;50.110;18.900;2023-02-28T02:20:49;99840.17;;;1.87;50.43
35758;BME280;21879;50.110;18.900;2023-02-28T02:31:52;99834.25;;;1.73;50.61
35758;BME280;21879;50.110;18.900;2023-02-28T02:42:24;99834.80;;;1.55;50.89
35758;BME280;21879;50.110;18.900;2023-02-28T02:52:53;99835.23;;;1.64;50.71
35758;BME280;21879;50.110;18.900;2023-02-28T03:03:19;99835.80;;;1.66;50.55
35758;BME280;21879;50.110;18.900;2023-02-28T03:14:25;99842.02;;;1.39;50.48
35758;BME280;21879;50.110;18.900;2023-02-28T03:24:54;99843.73;;;1.36;50.92
35758;BME280;21879;50.110;18.900;2023-02-28T03:35:23;99841.41;;;1.38;50.91
35758;BME280;21879;50.110;18.900;2023-02-28T03:45:50;99840.91;;;1.34;51.05
35758;BME280;21879;50.110;18.900;2023-02-28T03:56:18;99850.46;;;1.29;51.10
35758;BME280;21879;50.110;18.900;2023-02-28T04:06:44;99862.50;;;1.16;51.14
35758;BME280;21879;50.110;18.900;2023-02-28T04:17:08;99867.38;;;1.17;51.79
35758;BME280;21879;50.110;18.900;2023-02-28T04:27:32;99873.64;;;1.16;51.56
35758;BME280;21879;50.110;18.900;2023-02-28T04:37:57;99885.23;;;1.14;51.76
35758;BME280;21879;50.110;18.900;2023-02-28T04:48:23;99891.51;;;0.99;52.06
35758;BME280;21879;50.110;18.900;2023-02-28T04:58:47;99881.79;;;0.71;52.21
35758;BME280;21879;50.110;18.900;2023-02-28T05:09:12;99888.19;;;0.58;52.50
35758;BME280;21879;50.110;18.900;2023-02-28T05:19:36;99891.06;;;0.65;53.44
35758;BME280;21879;50.110;18.900;2023-02-28T05:30:01;99893.54;;;0.73;53.41
35758;BME280;21879;50.110;18.900;2023-02-28T05:40:27;99904.53;;;0.63;53.80
35758;BME280;21879;50.110;18.900;2023-02-28T05:50:52;99913.58;;;0.42;53.99
35758;BME280;21879;50.110;18.900;2023-02-28T06:01:32;99925.81;;;0.37;54.51
35758;BME280;21879;50.110;18.900;2023-02-28T06:11:59;99932.13;;;0.57;54.55
35758;BME280;21879;50.110;18.900;2023-02-28T06:22:23;99942.11;;;0.68;54.84
35758;BME280;21879;50.110;18.900;2023-02-28T06:32:47;99951.56;;;0.62;54.85
35758;BME280;21879;50.110;18.900;2023-02-28T06:43:13;99960.02;;;0.64;54.83
35758;BME280;21879;50.110;18.900;2023-02-28T06:53:38;99963.02;;;0.70;55.27
35758;BME280;21879;50.110;18.900;2023-02-28T07:04:02;99972.11;;;0.94;55.55
35758;BME280;21879;50.110;18.900;2023-02-28T07:14:26;99979.75;;;1.06;55.24
35758;BME280;21879;50.110;18.900;2023-02-28T07:24:50;99985.36;;;1.23;55.01
35758;BME280;21879;50.110;18.900;2023-02-28T07:35:15;99987.36;;;1.44;55.03
35758;BME280;21879;50.110;18.900;2023-02-28T07:45:40;99988.73;;;1.73;55.12
35758;BME280;21879;50.110;18.900;2023-02-28T07:56:06;99989.34;;;1.79;54.06
35758;BME280;21879;50.110;18.900;2023-02-28T08:06:30;99995.33;;;1.79;53.96
35758;BME280;21879;50.110;18.900;2023-02-28T08:16:55;99992.02;;;1.78;53.31
35758;BME280;21879;50.110;18.900;2023-02-28T08:27:20;99997.30;;;1.77;54.26
35758;BME280;21879;50.110;18.900;2023-02-28T08:37:44;99995.84;;;1.90;54.03
35758;BME280;21879;50.110;18.900;2023-02-28T08:48:12;99995.30;;;1.74;53.17
35758;BME280;21879;50.110;18.900;2023-02-28T08:58:37;99997.83;;;1.62;52.96
35758;BME280;21879;50.110;18.900;2023-02-28T09:09:02;99997.17;;;1.59;52.67
35758;BME280;21879;50.110;18.900;2023-02-28T09:19:28;100000.90;;;1.51;52.06
35758;BME280;21879;50.110;18.900;2023-02-28T09:29:53;100000.65;;;1.28;51.32
35758;BME280;21879;50.110;18.900;2023-02-28T09:40:19;99988.89;;;1.33;51.20
35758;BME280;21879;50.110;18.900;2023-02-28T09:50:46;99991.23;;;1.50;50.91
35758;BME280;21879;50.110;18.900;2023-02-28T10:01:20;99994.25;;;1.66;50.40
35758;BME280;21879;50.110;18.900;2023-02-28T10:11:47;99993.58;;;1.93;49.83
35758;BME280;21879;50.110;18.900;2023-02-28T10:22:22;99994.33;;;2.01;49.62
35758;BME280;21879;50.110;18.900;2023-02-28T10:32:50;99993.64;;;2.21;49.61
35758;BME280;21879;50.110;18.900;2023-02-28T10:43:21;99978.86;;;2.40;49.85
35758;BME280;21879;50.110;18.900;2023-02-28T10:53:48;99972.04;;;2.61;49.57
35758;BME280;21879;50.110;18.900;2023-02-28T11:04:36;99959.37;;;2.70;49.08
35758;BME280;21879;50.110;18.900;2023-02-28T11:15:05;99955.89;;;2.73;49.34
35758;BME280;21879;50.110;18.900;2023-02-28T11:25:32;99939.73;;;2.89;49.12
35758;BME280;21879;50.110;18.900;2023-02-28T11:36:02;99931.48;;;3.02;48.73
35758;BME280;21879;50.110;18.900;2023-02-28T11:46:32;99908.04;;;2.91;48.67
35758;BME280;21879;50.110;18.900;2023-02-28T11:57:09;99900.65;;;2.92;48.74
35758;BME280;21879;50.110;18.900;2023-02-28T12:07:49;99896.42;;;2.93;48.39
35758;BME280;21879;50.110;18.900;2023-02-28T12:18:28;99888.95;;;3.08;49.04
35758;BME280;21879;50.110;18.900;2023-02-28T12:29:01;99881.38;;;3.16;49.03
35758;BME280;21879;50.110;18.900;2023-02-28T12:39:32;99879.91;;;3.37;49.59
35758;BME280;21879;50.110;18.900;2023-02-28T12:50:14;99880.66;;;3.43;49.17
35758;BME280;21879;50.110;18.900;2023-02-28T13:00:49;99869.06;;;3.64;49.55
35758;BME280;21879;50.110;18.900;2023-02-28T13:11:29;99866.31;;;3.64;48.92
35758;BME280;21879;50.110;18.900;2023-02-28T13:21:54;99861.28;;;3.54;48.84
35758;BME280;21879;50.110;18.900;2023-02-28T13:32:42;99857.71;;;3.55;48.59
35758;BME280;21879;50.110;18.900;2023-02-28T13:43:09;99854.75;;;3.49;48.26
35758;BME280;21879;50.110;18.900;2023-02-28T13:53:59;99847.13;;;3.62;48.35
35758;BME280;21879;50.110;18.900;2023-02-28T14:04:54;99837.02;;;3.68;48.14
35758;BME280;21879;50.110;18.900;2023-02-28T14:15:39;99824.23;;;3.80;48.35
35758;BME280;21879;50.110;18.900;2023-02-28T14:26:13;99814.94;;;3.95;48.33
35758;BME280;21879;50.110;18.900;2023-02-28T14:36:43;99810.27;;;4.05;48.34
35758;BME280;21879;50.110;18.900;2023-02-28T14:47:14;99810.48;;;4.06;47.64
35758;BME280;21879;50.110;18.900;2023-02-28T14:57:42;99809.00;;;4.02;47.49
35758;BME280;21879;50.110;18.900;2023-02-28T15:08:15;99806.52;;;4.06;47.39
35758;BME280;21879;50.110;18.900;2023-02-28T15:18:46;99809.35;;;4.03;47.31
35758;BME280;21879;50.110;18.900;2023-02-28T15:29:13;99808.60;;;3.86;47.36
35758;BME280;21879;50.110;18.900;2023-02-28T15:39:43;99807.58;;;3.87;47.77
35758;BME280;21879;50.110;18.900;2023-02-28T15:50:13;99809.98;;;3.86;47.07
35758;BME280;21879;50.110;18.900;2023-02-28T16:00:38;99809.77;;;3.80;47.26
35758;BME280;21879;50.110;18.900;2023-02-28T16:11:02;99810.34;;;3.67;46.94
35758;BME280;21879;50.110;18.900;2023-02-28T16:21:27;99817.15;;;3.75;47.32
35758;BME280;21879;50.110;18.900;2023-02-28T16:31:52;99815.96;;;3.94;47.17
35758;BME280;21879;50.110;18.900;2023-02-28T16:42:21;99824.26;;;4.06;46.85
35758;BME280;21879;50.110;18.900;2023-02-28T16:52:46;99836.14;;;4.01;46.74
35758;BME280;21879;50.110;18.900;2023-02-28T17:03:21;99843.92;;;3.97;46.94
35758;BME280;21879;50.110;18.900;2023-02-28T17:13:56;99850.05;;;3.86;47.30
35758;BME280;21879;50.110;18.900;2023-02-28T17:24:20;99858.79;;;3.70;47.46
35758;BME280;21879;50.110;18.900;2023-02-28T17:34:54;99867.02;;;3.51;47.77
35758;BME280;21879;50.110;18.900;2023-02-28T17:45:18;99867.95;;;3.39;47.92
35758;BME280;21879;50.110;18.900;2023-02-28T17:55:43;99868.96;;;3.39;48.35
35758;BME280;21879;50.110;18.900;2023-02-28T18:06:13;99865.44;;;3.36;48.47
35758;BME280;21879;50.110;18.900;2023-02-28T18:16:38;99871.61;;;3.18;48.39
35758;BME280;21879;50.110;18.900;2023-02-28T18:27:03;99869.44;;;2.89;48.89
35758;BME280;21879;50.110;18.900;2023-02-28T18:37:29;99869.75;;;2.88;49.42
35758;BME280;21879;50.110;18.900;2023-02-28T18:47:53;99871.45;;;2.79;49.28
35758;BME280;21879;50.110;18.900;2023-02-28T18:58:17;99872.21;;;2.59;49.43
35758;BME280;21879;50.110;18.900;2023-02-28T19:08:42;99870.23;;;2.49;50.49
35758;BME280;21879;50.110;18.900;2023-02-28T19:19:07;99867.45;;;2.40;51.44
35758;BME280;21879;50.110;18.900;2023-02-28T19:29:31;99865.22;;;2.31;51.87
35758;BME280;21879;50.110;18.900;2023-02-28T19:39:56;99866.63;;;2.16;52.49
35758;BME280;21879;50.110;18.900;2023-02-28T19:50:22;99867.52;;;2.04;53.10
35758;BME280;21879;50.110;18.900;2023-02-28T20:00:47;99868.45;;;1.90;53.83
35758;BME280;21879;50.110;18.900;2023-02-28T20:11:20;99867.31;;;1.84;53.66
35758;BME280;21879;50.110;18.900;2023-02-28T20:21:45;99862.86;;;1.73;53.43
35758;BME280;21879;50.110;18.900;2023-02-28T20:32:10;99867.23;;;1.67;53.76
35758;BME280;21879;50.110;18.900;2023-02-28T20:42:36;99868.79;;;1.59;53.48
35758;BME280;21879;50.110;18.900;2023-02-28T20:53:01;99870.16;;;1.40;53.41
35758;BME280;21879;50.110;18.900;2023-02-28T21:03:25;99864.17;;;1.45;53.68
35758;BME280;21879;50.110;18.900;2023-02-28T21:13:52;99856.56;;;1.35;53.74
35758;BME280;21879;50.110;18.900;2023-02-28T21:24:18;99856.61;;;1.22;54.51
35758;BME280;21879;50.110;18.900;2023-02-28T21:34:42;99856.25;;;1.17;54.62
35758;BME280;21879;50.110;18.900;2023-02-28T21:45:08;99860.61;;;1.23;55.10
35758;BME280;21879;50.110;18.900;2023-02-28T21:55:34;99868.09;;;1.17;55.15
35758;BME280;21879;50.110;18.900;2023-02-28T22:05:58;99865.78;;;1.12;55.43
35758;BME280;21879;50.110;18.900;2023-02-28T22:16:24;99865.09;;;1.16;55.69
35758;BME280;21879;50.110;18.900;2023-02-28T22:26:50;99865.48;;;1.09;55.71
35758;BME280;21879;50.110;18.900;2023-02-28T22:37:14;99871.45;;;1.05;55.69
35758;BME280;21879;50.110;18.900;2023-02-28T22:47:38;99873.52;;;1.02;55.92
35758;BME280;21879;50.110;18.900;2023-02-28T22:58:03;99887.23;;;0.91;55.98
35758;BME280;21879;50.110;18.900;2023-02-28T23:08:27;99889.70;;;0.82;55.72
35758;BME280;21879;50.110;18.900;2023-02-28T23:18:52;99891.98;;;0.91;55.95
35758;BME280;21879;50.110;18.900;2023-02-28T23:29:17;99880.82;;;1.01;56.00
35758;BME280;21879;50.110;18.900;2023-02-28T23:39:42;99884.35;;;0.89;56.18
35758;BME280;21879;50.110;18.900;2023-02-28T23:50:07;99892.80;;;0.86;55.90
